sensor_id;sensor_type;location;lat;lon;timestamp;P1;durP1;ratioP1;P2;durP2;ratioP2
42244;SDS011;27912;51.828;5.688;2022-09-09T00:03:50;4.53;;;1.45;;
42244;SDS011;27912;51.828;5.688;2022-09-09T00:06:25;5.75;;;1.90;;
42244;SDS011;27912;51.828;5.688;2022-09-09T00:09:13;4.78;;;1.65;;
42244;SDS011;27912;51.828;5.688;2022-09-09T00:11:49;5.93;;;1.50;;
42244;SDS011;27912;51.828;5.688;2022-09-09T00:14:32;4.30;;;1.77;;
42244;SDS011;27912;51.828;5.688;2022-09-09T00:17:12;3.45;;;1.70;;
42244;SDS011;27912;51.828;5.688;2022-09-09T00:20:35;5.53;;;1.80;;
42244;SDS011;27912;51.828;5.688;2022-09-09T00:22:40;4.97;;;1.50;;
42244;SDS011;27912;51.828;5.688;2022-09-09T00:25:14;5.55;;;1.23;;
42244;SDS011;27912;51.828;5.688;2022-09-09T00:27:48;3.05;;;1.02;;
42244;SDS011;27912;51.828;5.688;2022-09-09T00:30:25;3.88;;;1.23;;
42244;SDS011;27912;51.828;5.688;2022-09-09T00:32:59;3.67;;;1.20;;
42244;SDS011;27912;51.828;5.688;2022-09-09T00:35:49;4.45;;;1.05;;
42244;SDS011;27912;51.828;5.688;2022-09-09T00:38:15;4.70;;;1.15;;
42244;SDS011;27912;51.828;5.688;2022-09-09T00:40:52;3.35;;;1.25;;
42244;SDS011;27912;51.828;5.688;2022-09-09T00:43:24;2.83;;;0.95;;
42244;SDS011;27912;51.828;5.688;2022-09-09T00:48:42;1.90;;;0.80;;
42244;SDS011;27912;51.828;5.688;2022-09-09T00:51:25;2.20;;;1.10;;
42244;SDS011;27912;51.828;5.688;2022-09-09T00:56:46;1.85;;;0.93;;
42244;SDS011;27912;51.828;5.688;2022-09-09T01:02:13;6.30;;;1.20;;
42244;SDS011;27912;51.828;5.688;2022-09-09T01:04:48;4.55;;;1.05;;
42244;SDS011;27912;51.828;5.688;2022-09-09T01:07:17;3.90;;;1.15;;
42244;SDS011;27912;51.828;5.688;2022-09-09T01:09:56;2.55;;;1.10;;
42244;SDS011;27912;51.828;5.688;2022-09-09T01:12:25;3.25;;;1.30;;
42244;SDS011;27912;51.828;5.688;2022-09-09T01:15:11;4.72;;;1.63;;
42244;SDS011;27912;51.828;5.688;2022-09-09T01:18:08;2.22;;;1.00;;
42244;SDS011;27912;51.828;5.688;2022-09-09T01:24:25;3.83;;;1.27;;
42244;SDS011;27912;51.828;5.688;2022-09-09T01:26:40;3.90;;;1.77;;
42244;SDS011;27912;51.828;5.688;2022-09-09T01:29:08;3.65;;;1.85;;
42244;SDS011;27912;51.828;5.688;2022-09-09T01:31:37;5.70;;;1.85;;
42244;SDS011;27912;51.828;5.688;2022-09-09T01:34:13;4.38;;;1.67;;
42244;SDS011;27912;51.828;5.688;2022-09-09T01:36:44;4.82;;;1.90;;
42244;SDS011;27912;51.828;5.688;2022-09-09T01:39:20;3.85;;;1.40;;
42244;SDS011;27912;51.828;5.688;2022-09-09T01:41:46;5.32;;;2.17;;
42244;SDS011;27912;51.828;5.688;2022-09-09T01:44:12;7.65;;;2.35;;
42244;SDS011;27912;51.828;5.688;2022-09-09T01:46:38;2.90;;;2.20;;
42244;SDS011;27912;51.828;5.688;2022-09-09T01:49:04;4.18;;;2.35;;
42244;SDS011;27912;51.828;5.688;2022-09-09T01:51:32;4.85;;;2.30;;
42244;SDS011;27912;51.828;5.688;2022-09-09T01:53:58;4.35;;;2.08;;
42244;SDS011;27912;51.828;5.688;2022-09-09T01:56:35;4.13;;;2.30;;
42244;SDS011;27912;51.828;5.688;2022-09-09T02:04:32;3.88;;;2.47;;
42244;SDS011;27912;51.828;5.688;2022-09-09T02:07:01;4.68;;;2.15;;
42244;SDS011;27912;51.828;5.688;2022-09-09T02:09:27;3.92;;;2.45;;
42244;SDS011;27912;51.828;5.688;2022-09-09T02:11:59;5.47;;;2.45;;
42244;SDS011;27912;51.828;5.688;2022-09-09T02:14:34;6.10;;;2.53;;
42244;SDS011;27912;51.828;5.688;2022-09-09T02:17:08;6.00;;;2.28;;
42244;SDS011;27912;51.828;5.688;2022-09-09T02:19:39;3.50;;;2.05;;
42244;SDS011;27912;51.828;5.688;2022-09-09T02:22:11;4.55;;;2.30;;
42244;SDS011;27912;51.828;5.688;2022-09-09T02:24:39;3.30;;;2.30;;
42244;SDS011;27912;51.828;5.688;2022-09-09T02:27:06;3.80;;;2.17;;
42244;SDS011;27912;51.828;5.688;2022-09-09T02:29:38;10.27;;;2.83;;
42244;SDS011;27912;51.828;5.688;2022-09-09T02:32:11;4.40;;;2.42;;
42244;SDS011;27912;51.828;5.688;2022-09-09T02:34:44;4.35;;;1.58;;
42244;SDS011;27912;51.828;5.688;2022-09-09T02:37:13;4.78;;;1.80;;
42244;SDS011;27912;51.828;5.688;2022-09-09T02:39:42;4.72;;;2.00;;
42244;SDS011;27912;51.828;5.688;2022-09-09T02:42:07;3.53;;;1.75;;
42244;SDS011;27912;51.828;5.688;2022-09-09T02:44:33;7.00;;;2.00;;
42244;SDS011;27912;51.828;5.688;2022-09-09T02:52:26;5.75;;;2.28;;
42244;SDS011;27912;51.828;5.688;2022-09-09T02:55:05;5.35;;;2.30;;
42244;SDS011;27912;51.828;5.688;2022-09-09T02:57:39;4.95;;;2.10;;
42244;SDS011;27912;51.828;5.688;2022-09-09T03:00:06;5.63;;;2.35;;
42244;SDS011;27912;51.828;5.688;2022-09-09T03:02:32;4.80;;;2.20;;
42244;SDS011;27912;51.828;5.688;2022-09-09T03:04:58;7.60;;;2.40;;
42244;SDS011;27912;51.828;5.688;2022-09-09T03:07:23;3.60;;;2.75;;
42244;SDS011;27912;51.828;5.688;2022-09-09T03:09:49;4.65;;;2.40;;
42244;SDS011;27912;51.828;5.688;2022-09-09T03:12:14;5.20;;;2.05;;
42244;SDS011;27912;51.828;5.688;2022-09-09T03:14:41;7.38;;;2.75;;
42244;SDS011;27912;51.828;5.688;2022-09-09T03:17:06;8.68;;;2.17;;
42244;SDS011;27912;51.828;5.688;2022-09-09T03:19:34;5.53;;;3.10;;
42244;SDS011;27912;51.828;5.688;2022-09-09T03:22:00;4.10;;;2.15;;
42244;SDS011;27912;51.828;5.688;2022-09-09T03:24:25;6.00;;;2.15;;
42244;SDS011;27912;51.828;5.688;2022-09-09T03:26:51;4.53;;;2.20;;
42244;SDS011;27912;51.828;5.688;2022-09-09T03:29:16;3.80;;;2.00;;
42244;SDS011;27912;51.828;5.688;2022-09-09T03:31:43;5.43;;;2.10;;
42244;SDS011;27912;51.828;5.688;2022-09-09T03:34:09;10.98;;;2.03;;
42244;SDS011;27912;51.828;5.688;2022-09-09T03:36:35;5.82;;;2.63;;
42244;SDS011;27912;51.828;5.688;2022-09-09T03:39:01;5.00;;;1.92;;
42244;SDS011;27912;51.828;5.688;2022-09-09T03:41:28;7.65;;;2.53;;
42244;SDS011;27912;51.828;5.688;2022-09-09T03:43:54;5.13;;;2.30;;
42244;SDS011;27912;51.828;5.688;2022-09-09T03:46:20;7.07;;;2.25;;
42244;SDS011;27912;51.828;5.688;2022-09-09T03:48:47;5.35;;;2.35;;
42244;SDS011;27912;51.828;5.688;2022-09-09T03:51:12;8.30;;;2.50;;
42244;SDS011;27912;51.828;5.688;2022-09-09T03:53:38;6.53;;;2.45;;
42244;SDS011;27912;51.828;5.688;2022-09-09T03:56:05;4.30;;;2.65;;
42244;SDS011;27912;51.828;5.688;2022-09-09T03:58:32;7.20;;;2.45;;
42244;SDS011;27912;51.828;5.688;2022-09-09T04:01:09;9.27;;;2.42;;
42244;SDS011;27912;51.828;5.688;2022-09-09T04:03:38;6.75;;;2.50;;
42244;SDS011;27912;51.828;5.688;2022-09-09T04:06:04;7.00;;;3.40;;
42244;SDS011;27912;51.828;5.688;2022-09-09T04:08:32;6.75;;;3.08;;
42244;SDS011;27912;51.828;5.688;2022-09-09T04:10:58;6.72;;;2.80;;
42244;SDS011;27912;51.828;5.688;2022-09-09T04:13:25;8.35;;;2.70;;
42244;SDS011;27912;51.828;5.688;2022-09-09T04:15:52;7.28;;;2.70;;
42244;SDS011;27912;51.828;5.688;2022-09-09T04:18:22;7.25;;;2.65;;
42244;SDS011;27912;51.828;5.688;2022-09-09T04:20:49;9.05;;;2.40;;
42244;SDS011;27912;51.828;5.688;2022-09-09T04:23:15;5.75;;;2.53;;
42244;SDS011;27912;51.828;5.688;2022-09-09T04:25:44;6.80;;;2.30;;
42244;SDS011;27912;51.828;5.688;2022-09-09T04:28:15;7.13;;;2.60;;
42244;SDS011;27912;51.828;5.688;2022-09-09T04:30:41;8.60;;;2.47;;
42244;SDS011;27912;51.828;5.688;2022-09-09T04:33:08;6.60;;;2.83;;
42244;SDS011;27912;51.828;5.688;2022-09-09T04:35:34;6.35;;;2.35;;
42244;SDS011;27912;51.828;5.688;2022-09-09T04:38:01;5.90;;;2.42;;
42244;SDS011;27912;51.828;5.688;2022-09-09T04:40:28;6.72;;;2.33;;
42244;SDS011;27912;51.828;5.688;2022-09-09T04:42:54;5.25;;;2.13;;
42244;SDS011;27912;51.828;5.688;2022-09-09T04:45:20;9.30;;;2.58;;
42244;SDS011;27912;51.828;5.688;2022-09-09T04:47:47;4.10;;;1.92;;
42244;SDS011;27912;51.828;5.688;2022-09-09T04:50:14;4.93;;;2.35;;
42244;SDS011;27912;51.828;5.688;2022-09-09T04:52:39;7.63;;;1.83;;
42244;SDS011;27912;51.828;5.688;2022-09-09T04:55:06;3.80;;;1.88;;
42244;SDS011;27912;51.828;5.688;2022-09-09T04:57:32;11.20;;;2.60;;
42244;SDS011;27912;51.828;5.688;2022-09-09T04:59:58;10.43;;;2.25;;
42244;SDS011;27912;51.828;5.688;2022-09-09T05:02:25;9.27;;;2.22;;
42244;SDS011;27912;51.828;5.688;2022-09-09T05:04:51;4.93;;;2.08;;
42244;SDS011;27912;51.828;5.688;2022-09-09T05:07:17;7.35;;;1.77;;
42244;SDS011;27912;51.828;5.688;2022-09-09T05:09:44;7.80;;;1.95;;
42244;SDS011;27912;51.828;5.688;2022-09-09T05:12:10;5.40;;;2.25;;
42244;SDS011;27912;51.828;5.688;2022-09-09T05:14:37;8.07;;;2.25;;
42244;SDS011;27912;51.828;5.688;2022-09-09T05:17:03;12.35;;;2.10;;
42244;SDS011;27912;51.828;5.688;2022-09-09T05:19:28;5.32;;;1.85;;
42244;SDS011;27912;51.828;5.688;2022-09-09T05:21:56;7.20;;;2.17;;
42244;SDS011;27912;51.828;5.688;2022-09-09T05:24:22;7.10;;;2.60;;
42244;SDS011;27912;51.828;5.688;2022-09-09T05:26:50;7.00;;;1.65;;
42244;SDS011;27912;51.828;5.688;2022-09-09T05:29:16;9.25;;;2.45;;
42244;SDS011;27912;51.828;5.688;2022-09-09T05:31:44;5.28;;;2.10;;
42244;SDS011;27912;51.828;5.688;2022-09-09T05:34:10;8.60;;;2.20;;
42244;SDS011;27912;51.828;5.688;2022-09-09T05:36:37;5.93;;;1.52;;
42244;SDS011;27912;51.828;5.688;2022-09-09T05:39:03;8.18;;;1.73;;
42244;SDS011;27912;51.828;5.688;2022-09-09T05:41:29;4.68;;;1.70;;
42244;SDS011;27912;51.828;5.688;2022-09-09T05:43:55;11.35;;;2.63;;
42244;SDS011;27912;51.828;5.688;2022-09-09T05:46:21;6.68;;;1.70;;
42244;SDS011;27912;51.828;5.688;2022-09-09T05:48:49;8.23;;;1.50;;
42244;SDS011;27912;51.828;5.688;2022-09-09T05:51:20;6.90;;;1.48;;
42244;SDS011;27912;51.828;5.688;2022-09-09T05:53:49;6.07;;;1.80;;
42244;SDS011;27912;51.828;5.688;2022-09-09T05:56:20;6.88;;;1.65;;
42244;SDS011;27912;51.828;5.688;2022-09-09T05:58:47;9.88;;;2.33;;
42244;SDS011;27912;51.828;5.688;2022-09-09T06:01:15;10.35;;;2.15;;
42244;SDS011;27912;51.828;5.688;2022-09-09T06:03:43;6.22;;;1.75;;
42244;SDS011;27912;51.828;5.688;2022-09-09T06:06:10;7.82;;;1.50;;
42244;SDS011;27912;51.828;5.688;2022-09-09T06:08:38;5.68;;;1.20;;
42244;SDS011;27912;51.828;5.688;2022-09-09T06:11:10;9.07;;;1.50;;
42244;SDS011;27912;51.828;5.688;2022-09-09T06:13:41;6.95;;;1.58;;
42244;SDS011;27912;51.828;5.688;2022-09-09T06:16:14;6.93;;;1.42;;
42244;SDS011;27912;51.828;5.688;2022-09-09T06:18:41;6.45;;;1.25;;
42244;SDS011;27912;51.828;5.688;2022-09-09T06:21:17;5.68;;;1.83;;
42244;SDS011;27912;51.828;5.688;2022-09-09T06:23:45;10.35;;;1.40;;
42244;SDS011;27912;51.828;5.688;2022-09-09T06:28:57;7.60;;;1.80;;
42244;SDS011;27912;51.828;5.688;2022-09-09T06:31:25;8.65;;;1.70;;
42244;SDS011;27912;51.828;5.688;2022-09-09T06:33:55;5.25;;;1.35;;
42244;SDS011;27912;51.828;5.688;2022-09-09T06:36:24;8.48;;;1.25;;
42244;SDS011;27912;51.828;5.688;2022-09-09T06:38:54;8.23;;;1.52;;
42244;SDS011;27912;51.828;5.688;2022-09-09T06:41:21;8.93;;;1.20;;
42244;SDS011;27912;51.828;5.688;2022-09-09T06:43:49;10.50;;;1.60;;
42244;SDS011;27912;51.828;5.688;2022-09-09T06:46:15;10.63;;;2.22;;
42244;SDS011;27912;51.828;5.688;2022-09-09T06:51:22;5.82;;;1.25;;
42244;SDS011;27912;51.828;5.688;2022-09-09T06:53:52;6.03;;;1.58;;
42244;SDS011;27912;51.828;5.688;2022-09-09T06:58:48;6.07;;;1.45;;
42244;SDS011;27912;51.828;5.688;2022-09-09T07:01:19;11.50;;;1.60;;
42244;SDS011;27912;51.828;5.688;2022-09-09T07:03:46;8.88;;;1.83;;
42244;SDS011;27912;51.828;5.688;2022-09-09T07:06:15;5.50;;;1.42;;
42244;SDS011;27912;51.828;5.688;2022-09-09T07:08:48;7.70;;;1.63;;
42244;SDS011;27912;51.828;5.688;2022-09-09T07:11:18;12.50;;;1.80;;
42244;SDS011;27912;51.828;5.688;2022-09-09T07:13:45;7.25;;;1.83;;
42244;SDS011;27912;51.828;5.688;2022-09-09T07:16:11;9.88;;;1.70;;
42244;SDS011;27912;51.828;5.688;2022-09-09T07:18:39;7.38;;;1.42;;
42244;SDS011;27912;51.828;5.688;2022-09-09T07:21:06;5.65;;;1.30;;
42244;SDS011;27912;51.828;5.688;2022-09-09T07:23:32;9.00;;;1.70;;
42244;SDS011;27912;51.828;5.688;2022-09-09T07:26:00;7.25;;;1.40;;
42244;SDS011;27912;51.828;5.688;2022-09-09T07:28:27;9.10;;;2.25;;
42244;SDS011;27912;51.828;5.688;2022-09-09T07:31:00;5.55;;;1.08;;
42244;SDS011;27912;51.828;5.688;2022-09-09T07:33:30;7.50;;;2.00;;
42244;SDS011;27912;51.828;5.688;2022-09-09T07:36:08;6.97;;;1.75;;
42244;SDS011;27912;51.828;5.688;2022-09-09T07:38:44;6.25;;;1.85;;
42244;SDS011;27912;51.828;5.688;2022-09-09T07:41:13;6.50;;;1.50;;
42244;SDS011;27912;51.828;5.688;2022-09-09T07:43:41;5.38;;;1.38;;
42244;SDS011;27912;51.828;5.688;2022-09-09T07:46:09;9.38;;;2.00;;
42244;SDS011;27912;51.828;5.688;2022-09-09T07:48:35;6.25;;;1.40;;
42244;SDS011;27912;51.828;5.688;2022-09-09T07:51:08;7.53;;;1.45;;
42244;SDS011;27912;51.828;5.688;2022-09-09T07:53:37;10.38;;;1.20;;
42244;SDS011;27912;51.828;5.688;2022-09-09T07:56:07;5.38;;;1.55;;
42244;SDS011;27912;51.828;5.688;2022-09-09T07:58:36;12.70;;;1.65;;
42244;SDS011;27912;51.828;5.688;2022-09-09T08:01:08;7.18;;;1.10;;
42244;SDS011;27912;51.828;5.688;2022-09-09T08:03:36;6.10;;;0.88;;
42244;SDS011;27912;51.828;5.688;2022-09-09T08:06:03;8.00;;;1.52;;
42244;SDS011;27912;51.828;5.688;2022-09-09T08:08:31;4.80;;;0.90;;
42244;SDS011;27912;51.828;5.688;2022-09-09T08:11:04;7.03;;;1.13;;
42244;SDS011;27912;51.828;5.688;2022-09-09T08:13:32;7.07;;;0.90;;
42244;SDS011;27912;51.828;5.688;2022-09-09T08:16:12;8.57;;;0.70;;
42244;SDS011;27912;51.828;5.688;2022-09-09T08:18:40;8.52;;;0.85;;
42244;SDS011;27912;51.828;5.688;2022-09-09T08:23:43;7.45;;;1.10;;
42244;SDS011;27912;51.828;5.688;2022-09-09T08:26:44;4.78;;;0.70;;
42244;SDS011;27912;51.828;5.688;2022-09-09T08:29:07;5.07;;;0.77;;
42244;SDS011;27912;51.828;5.688;2022-09-09T08:31:43;6.47;;;0.77;;
42244;SDS011;27912;51.828;5.688;2022-09-09T08:34:11;7.10;;;0.93;;
42244;SDS011;27912;51.828;5.688;2022-09-09T08:36:38;8.25;;;0.60;;
42244;SDS011;27912;51.828;5.688;2022-09-09T08:39:07;8.48;;;0.77;;
42244;SDS011;27912;51.828;5.688;2022-09-09T08:41:50;5.82;;;1.05;;
42244;SDS011;27912;51.828;5.688;2022-09-09T08:52:49;7.20;;;0.60;;
42244;SDS011;27912;51.828;5.688;2022-09-09T08:58:18;8.13;;;0.50;;
42244;SDS011;27912;51.828;5.688;2022-09-09T09:11:50;7.72;;;0.60;;
42244;SDS011;27912;51.828;5.688;2022-09-09T09:14:23;3.80;;;0.47;;
42244;SDS011;27912;51.828;5.688;2022-09-09T09:19:21;5.35;;;0.50;;
42244;SDS011;27912;51.828;5.688;2022-09-09T09:24:44;3.63;;;0.50;;
42244;SDS011;27912;51.828;5.688;2022-09-09T09:30:35;5.88;;;0.50;;
42244;SDS011;27912;51.828;5.688;2022-09-09T09:33:21;4.15;;;0.47;;
42244;SDS011;27912;51.828;5.688;2022-09-09T09:35:52;5.25;;;0.80;;
42244;SDS011;27912;51.828;5.688;2022-09-09T09:38:28;7.72;;;1.10;;
42244;SDS011;27912;51.828;5.688;2022-09-09T09:40:55;4.50;;;0.60;;
42244;SDS011;27912;51.828;5.688;2022-09-09T09:43:35;3.55;;;0.45;;
42244;SDS011;27912;51.828;5.688;2022-09-09T09:46:05;6.43;;;0.50;;
42244;SDS011;27912;51.828;5.688;2022-09-09T09:48:42;5.97;;;0.55;;
42244;SDS011;27912;51.828;5.688;2022-09-09T09:51:09;6.28;;;0.50;;
42244;SDS011;27912;51.828;5.688;2022-09-09T09:53:38;3.83;;;0.50;;
42244;SDS011;27912;51.828;5.688;2022-09-09T09:56:05;5.38;;;0.50;;
42244;SDS011;27912;51.828;5.688;2022-09-09T10:01:20;4.90;;;0.50;;
42244;SDS011;27912;51.828;5.688;2022-09-09T10:03:57;4.13;;;0.50;;
42244;SDS011;27912;51.828;5.688;2022-09-09T10:06:31;6.78;;;0.68;;
42244;SDS011;27912;51.828;5.688;2022-09-09T10:09:02;8.07;;;0.60;;
42244;SDS011;27912;51.828;5.688;2022-09-09T10:27:03;4.45;;;0.55;;
42244;SDS011;27912;51.828;5.688;2022-09-09T10:35:12;6.45;;;0.70;;
42244;SDS011;27912;51.828;5.688;2022-09-09T10:37:51;5.22;;;0.80;;
42244;SDS011;27912;51.828;5.688;2022-09-09T10:43:01;4.93;;;0.50;;
42244;SDS011;27912;51.828;5.688;2022-09-09T10:45:45;7.65;;;0.80;;
42244;SDS011;27912;51.828;5.688;2022-09-09T10:54:22;4.95;;;0.60;;
42244;SDS011;27912;51.828;5.688;2022-09-09T10:56:58;5.88;;;1.02;;
42244;SDS011;27912;51.828;5.688;2022-09-09T11:02:29;6.35;;;0.60;;
42244;SDS011;27912;51.828;5.688;2022-09-09T11:10:04;5.85;;;0.80;;
42244;SDS011;27912;51.828;5.688;2022-09-09T11:12:41;4.78;;;0.80;;
42244;SDS011;27912;51.828;5.688;2022-09-09T11:15:28;6.35;;;0.88;;
42244;SDS011;27912;51.828;5.688;2022-09-09T11:18:01;4.40;;;0.98;;
42244;SDS011;27912;51.828;5.688;2022-09-09T11:20:29;5.55;;;0.60;;
42244;SDS011;27912;51.828;5.688;2022-09-09T11:23:04;4.43;;;0.60;;
42244;SDS011;27912;51.828;5.688;2022-09-09T11:25:41;4.72;;;0.65;;
42244;SDS011;27912;51.828;5.688;2022-09-09T11:31:01;7.57;;;0.70;;
42244;SDS011;27912;51.828;5.688;2022-09-09T11:33:51;2.97;;;0.47;;
42244;SDS011;27912;51.828;5.688;2022-09-09T11:42:22;4.03;;;0.68;;
42244;SDS011;27912;51.828;5.688;2022-09-09T11:44:49;3.28;;;0.93;;
42244;SDS011;27912;51.828;5.688;2022-09-09T11:47:28;3.17;;;0.50;;
42244;SDS011;27912;51.828;5.688;2022-09-09T11:52:43;3.83;;;0.50;;
42244;SDS011;27912;51.828;5.688;2022-09-09T11:55:27;6.40;;;0.50;;
42244;SDS011;27912;51.828;5.688;2022-09-09T11:57:59;4.78;;;0.60;;
42244;SDS011;27912;51.828;5.688;2022-09-09T12:00:33;6.82;;;0.63;;
42244;SDS011;27912;51.828;5.688;2022-09-09T12:03:02;6.80;;;0.80;;
42244;SDS011;27912;51.828;5.688;2022-09-09T12:05:36;4.47;;;0.52;;
42244;SDS011;27912;51.828;5.688;2022-09-09T12:08:09;3.33;;;0.60;;
42244;SDS011;27912;51.828;5.688;2022-09-09T12:10:52;3.88;;;0.50;;
42244;SDS011;27912;51.828;5.688;2022-09-09T12:13:25;5.30;;;0.57;;
42244;SDS011;27912;51.828;5.688;2022-09-09T12:15:55;4.03;;;0.88;;
42244;SDS011;27912;51.828;5.688;2022-09-09T12:18:22;5.45;;;0.80;;
42244;SDS011;27912;51.828;5.688;2022-09-09T12:28:49;4.53;;;1.15;;
42244;SDS011;27912;51.828;5.688;2022-09-09T12:31:35;4.68;;;0.90;;
42244;SDS011;27912;51.828;5.688;2022-09-09T12:34:16;4.65;;;0.77;;
42244;SDS011;27912;51.828;5.688;2022-09-09T12:39:51;6.28;;;0.80;;
42244;SDS011;27912;51.828;5.688;2022-09-09T12:42:20;4.03;;;0.77;;
42244;SDS011;27912;51.828;5.688;2022-09-09T12:44:51;3.70;;;0.50;;
42244;SDS011;27912;51.828;5.688;2022-09-09T12:47:17;5.72;;;1.02;;
42244;SDS011;27912;51.828;5.688;2022-09-09T12:49:45;5.50;;;0.63;;
42244;SDS011;27912;51.828;5.688;2022-09-09T12:54:44;4.03;;;0.80;;
42244;SDS011;27912;51.828;5.688;2022-09-09T12:57:16;6.43;;;0.80;;
42244;SDS011;27912;51.828;5.688;2022-09-09T12:59:43;3.13;;;0.70;;
42244;SDS011;27912;51.828;5.688;2022-09-09T13:02:25;4.45;;;0.80;;
42244;SDS011;27912;51.828;5.688;2022-09-09T13:04:52;1.80;;;0.70;;
42244;SDS011;27912;51.828;5.688;2022-09-09T13:07:20;5.68;;;0.70;;
42244;SDS011;27912;51.828;5.688;2022-09-09T13:09:47;2.65;;;0.50;;
42244;SDS011;27912;51.828;5.688;2022-09-09T13:12:18;3.20;;;0.75;;
42244;SDS011;27912;51.828;5.688;2022-09-09T13:17:20;4.40;;;1.02;;
42244;SDS011;27912;51.828;5.688;2022-09-09T13:19:48;2.60;;;0.60;;
42244;SDS011;27912;51.828;5.688;2022-09-09T13:22:29;4.50;;;0.60;;
42244;SDS011;27912;51.828;5.688;2022-09-09T13:25:06;5.45;;;0.70;;
42244;SDS011;27912;51.828;5.688;2022-09-09T13:27:33;4.43;;;0.60;;
42244;SDS011;27912;51.828;5.688;2022-09-09T13:30:30;6.22;;;0.70;;
42244;SDS011;27912;51.828;5.688;2022-09-09T13:33:02;4.63;;;0.73;;
42244;SDS011;27912;51.828;5.688;2022-09-09T13:35:29;8.07;;;0.65;;
42244;SDS011;27912;51.828;5.688;2022-09-09T13:37:55;4.63;;;0.60;;
42244;SDS011;27912;51.828;5.688;2022-09-09T13:40:22;3.83;;;0.68;;
42244;SDS011;27912;51.828;5.688;2022-09-09T13:42:51;2.90;;;0.65;;
42244;SDS011;27912;51.828;5.688;2022-09-09T13:45:21;4.75;;;0.40;;
42244;SDS011;27912;51.828;5.688;2022-09-09T13:47:51;3.10;;;0.70;;
42244;SDS011;27912;51.828;5.688;2022-09-09T13:50:27;5.18;;;0.40;;
42244;SDS011;27912;51.828;5.688;2022-09-09T13:52:54;4.47;;;0.65;;
42244;SDS011;27912;51.828;5.688;2022-09-09T13:55:23;3.20;;;0.45;;
42244;SDS011;27912;51.828;5.688;2022-09-09T13:57:53;4.30;;;0.60;;
42244;SDS011;27912;51.828;5.688;2022-09-09T14:00:20;4.93;;;1.00;;
42244;SDS011;27912;51.828;5.688;2022-09-09T14:02:47;5.43;;;0.85;;
42244;SDS011;27912;51.828;5.688;2022-09-09T14:05:14;2.92;;;0.40;;
42244;SDS011;27912;51.828;5.688;2022-09-09T14:07:41;3.80;;;0.40;;
42244;SDS011;27912;51.828;5.688;2022-09-09T14:10:07;5.07;;;0.60;;
42244;SDS011;27912;51.828;5.688;2022-09-09T14:12:34;6.45;;;1.08;;
42244;SDS011;27912;51.828;5.688;2022-09-09T14:15:00;2.38;;;0.50;;
42244;SDS011;27912;51.828;5.688;2022-09-09T14:17:26;4.38;;;0.60;;
42244;SDS011;27912;51.828;5.688;2022-09-09T14:19:54;4.50;;;0.55;;
42244;SDS011;27912;51.828;5.688;2022-09-09T14:22:20;4.97;;;0.60;;
42244;SDS011;27912;51.828;5.688;2022-09-09T14:24:45;5.15;;;0.55;;
42244;SDS011;27912;51.828;5.688;2022-09-09T14:27:11;5.07;;;0.50;;
42244;SDS011;27912;51.828;5.688;2022-09-09T14:29:36;4.90;;;0.60;;
42244;SDS011;27912;51.828;5.688;2022-09-09T14:32:02;3.70;;;0.75;;
42244;SDS011;27912;51.828;5.688;2022-09-09T14:34:27;3.85;;;0.60;;
42244;SDS011;27912;51.828;5.688;2022-09-09T14:36:53;4.07;;;0.77;;
42244;SDS011;27912;51.828;5.688;2022-09-09T14:39:19;4.03;;;0.73;;
42244;SDS011;27912;51.828;5.688;2022-09-09T14:41:44;3.72;;;0.77;;
42244;SDS011;27912;51.828;5.688;2022-09-09T14:44:10;2.55;;;0.50;;
42244;SDS011;27912;51.828;5.688;2022-09-09T14:46:36;8.00;;;0.93;;
42244;SDS011;27912;51.828;5.688;2022-09-09T14:49:02;6.43;;;0.93;;
42244;SDS011;27912;51.828;5.688;2022-09-09T14:51:27;3.90;;;0.80;;
42244;SDS011;27912;51.828;5.688;2022-09-09T14:53:56;3.92;;;0.57;;
42244;SDS011;27912;51.828;5.688;2022-09-09T14:56:24;2.65;;;0.50;;
42244;SDS011;27912;51.828;5.688;2022-09-09T14:58:55;2.45;;;0.45;;
42244;SDS011;27912;51.828;5.688;2022-09-09T15:01:22;1.90;;;0.30;;
42244;SDS011;27912;51.828;5.688;2022-09-09T15:03:56;2.22;;;0.50;;
42244;SDS011;27912;51.828;5.688;2022-09-09T15:06:24;5.40;;;0.40;;
42244;SDS011;27912;51.828;5.688;2022-09-09T15:08:51;3.75;;;0.40;;
42244;SDS011;27912;51.828;5.688;2022-09-09T15:11:18;3.53;;;0.30;;
42244;SDS011;27912;51.828;5.688;2022-09-09T15:13:45;1.88;;;0.30;;
42244;SDS011;27912;51.828;5.688;2022-09-09T15:16:14;5.28;;;0.40;;
42244;SDS011;27912;51.828;5.688;2022-09-09T15:18:41;3.28;;;0.30;;
42244;SDS011;27912;51.828;5.688;2022-09-09T15:21:18;5.68;;;0.43;;
42244;SDS011;27912;51.828;5.688;2022-09-09T15:23:46;1.52;;;0.30;;
42244;SDS011;27912;51.828;5.688;2022-09-09T15:26:12;1.55;;;0.30;;
42244;SDS011;27912;51.828;5.688;2022-09-09T15:28:39;3.90;;;0.52;;
42244;SDS011;27912;51.828;5.688;2022-09-09T15:31:27;3.70;;;0.32;;
42244;SDS011;27912;51.828;5.688;2022-09-09T15:33:56;7.70;;;1.25;;
42244;SDS011;27912;51.828;5.688;2022-09-09T15:36:27;18.73;;;3.60;;
42244;SDS011;27912;51.828;5.688;2022-09-09T15:38:54;10.13;;;2.08;;
42244;SDS011;27912;51.828;5.688;2022-09-09T15:41:20;3.83;;;0.80;;
42244;SDS011;27912;51.828;5.688;2022-09-09T15:43:53;3.38;;;0.60;;
42244;SDS011;27912;51.828;5.688;2022-09-09T15:46:34;2.05;;;0.40;;
42244;SDS011;27912;51.828;5.688;2022-09-09T15:49:16;1.73;;;0.30;;
42244;SDS011;27912;51.828;5.688;2022-09-09T15:51:44;4.72;;;0.50;;
42244;SDS011;27912;51.828;5.688;2022-09-09T15:54:12;5.03;;;0.47;;
42244;SDS011;27912;51.828;5.688;2022-09-09T15:56:41;1.58;;;0.30;;
42244;SDS011;27912;51.828;5.688;2022-09-09T15:59:06;2.85;;;0.40;;
42244;SDS011;27912;51.828;5.688;2022-09-09T16:01:32;1.38;;;0.40;;
42244;SDS011;27912;51.828;5.688;2022-09-09T16:03:59;3.13;;;0.38;;
42244;SDS011;27912;51.828;5.688;2022-09-09T16:06:25;2.15;;;0.30;;
42244;SDS011;27912;51.828;5.688;2022-09-09T16:08:53;1.77;;;0.30;;
42244;SDS011;27912;51.828;5.688;2022-09-09T16:11:21;2.80;;;0.30;;
42244;SDS011;27912;51.828;5.688;2022-09-09T16:13:49;3.67;;;0.40;;
42244;SDS011;27912;51.828;5.688;2022-09-09T16:16:17;2.40;;;0.45;;
42244;SDS011;27912;51.828;5.688;2022-09-09T16:18:47;0.93;;;0.32;;
42244;SDS011;27912;51.828;5.688;2022-09-09T16:21:15;2.97;;;0.28;;
42244;SDS011;27912;51.828;5.688;2022-09-09T16:23:54;2.05;;;0.40;;
42244;SDS011;27912;51.828;5.688;2022-09-09T16:26:20;1.48;;;0.40;;
42244;SDS011;27912;51.828;5.688;2022-09-09T16:28:46;2.17;;;0.60;;
42244;SDS011;27912;51.828;5.688;2022-09-09T16:31:22;2.78;;;0.40;;
42244;SDS011;27912;51.828;5.688;2022-09-09T16:33:49;1.90;;;0.70;;
42244;SDS011;27912;51.828;5.688;2022-09-09T16:36:25;2.25;;;0.50;;
42244;SDS011;27912;51.828;5.688;2022-09-09T16:38:56;2.75;;;0.40;;
42244;SDS011;27912;51.828;5.688;2022-09-09T16:41:23;1.55;;;0.40;;
42244;SDS011;27912;51.828;5.688;2022-09-09T16:43:52;1.73;;;0.38;;
42244;SDS011;27912;51.828;5.688;2022-09-09T16:46:19;2.85;;;0.40;;
42244;SDS011;27912;51.828;5.688;2022-09-09T16:48:45;1.60;;;0.40;;
42244;SDS011;27912;51.828;5.688;2022-09-09T16:51:22;2.78;;;0.52;;
42244;SDS011;27912;51.828;5.688;2022-09-09T16:53:53;2.25;;;0.50;;
42244;SDS011;27912;51.828;5.688;2022-09-09T16:56:23;2.50;;;0.60;;
42244;SDS011;27912;51.828;5.688;2022-09-09T16:59:08;1.73;;;0.60;;
42244;SDS011;27912;51.828;5.688;2022-09-09T17:01:37;2.75;;;0.45;;
42244;SDS011;27912;51.828;5.688;2022-09-09T17:04:06;1.00;;;0.40;;
42244;SDS011;27912;51.828;5.688;2022-09-09T17:06:33;1.33;;;0.60;;
42244;SDS011;27912;51.828;5.688;2022-09-09T17:09:03;2.75;;;0.70;;
42244;SDS011;27912;51.828;5.688;2022-09-09T17:11:33;2.08;;;0.60;;
42244;SDS011;27912;51.828;5.688;2022-09-09T17:14:02;2.53;;;0.65;;
42244;SDS011;27912;51.828;5.688;2022-09-09T17:16:57;1.38;;;0.70;;
42244;SDS011;27912;51.828;5.688;2022-09-09T17:19:23;2.65;;;1.02;;
42244;SDS011;27912;51.828;5.688;2022-09-09T17:21:48;3.50;;;1.05;;